Decoded Metar for CYGW (KUUJJUARARAPIK in QC, CANADA) (IATA:YGW) | Meteo·Mobile Aviation Weather
aviador You're here:

CYGW Decoded Metar

KUUJJUARARAPIK in QC, CANADA
Report Time2019-05-19 13:00:00
UTC Time2019-05-19 13:28:58
Flight Rules ifr IFR
Wind300° at 03 kt
W.Decomp.*RWY 03: 0.9 kt HW 2.9 kt LCW
Visibility9656 m
Phenomena:Mist
Clouds:Overcast 006 Hf
Expected CloudBase > 400 ft AGL from Temp-Dew spread
Ceiling600 ft
Temp00°C (ISA -15)
Dew Point-1°C (93% RH)
AAT-3.2°C
QNH1021 hPa
Density Alt-1,982 ft
Elevation39 ft
Report Wrong Elevation
Raw Report
CYGW 191300Z AUTO 30003KT 250V330 6SM BR OVC006 M00/M01 A3014 RMK
SLP210=

Extra information for CYGW:More info

Metar Taf Metar & Taf Last 4 Metars F.Rules Stats Wind Profile Meteogram Temp Stats Airport Information Weather charts Add Link Nearby VenuesMetar ALERT Operation Metar Decoded Social comments